Time;durP1;ratioP1;P1;durP2;ratioP2;P2;SDS_P1;SDS_P2;PMS_P1;PMS_P2;Temp;Humidity;BMP_temperature;BMP_pressure;BME280_temperature;BME280_humidity;BME280_pressure;Samples;Min_cycle;Max_cycle;Signal;HPM_P1;HPM_P2
2023/01/09 05:02:07;;;;;;;0.70;0.70;;;7.30;99.90;;;;;;5137290;23;20295;-66
2023/01/09 05:04:34;;;;;;;0.52;0.52;;;7.30;99.90;;;;;;4906643;29;20208;-66
2023/01/09 05:07:01;;;;;;;0.80;0.45;;;7.30;99.90;;;;;;4911956;29;20209;-66
2023/01/09 05:09:27;;;;;;;0.95;0.75;;;7.30;99.90;;;;;;4906062;29;20308;-67
2023/01/09 05:11:54;;;;;;;0.63;0.60;;;7.30;99.90;;;;;;4895968;29;20233;-66
2023/01/09 05:14:21;;;;;;;0.70;0.70;;;7.30;99.90;;;;;;4893511;29;20232;-67
2023/01/09 05:16:48;;;;;;;0.35;0.35;;;7.30;99.90;;;;;;4892783;29;20229;-67
2023/01/09 05:19:16;;;;;;;1.10;1.08;;;7.30;99.90;;;;;;4931063;23;20231;-69
2023/01/09 05:21:43;;;;;;;0.10;0.10;;;7.30;99.90;;;;;;4931130;29;20310;-68
2023/01/09 05:24:10;;;;;;;0.35;0.35;;;7.30;99.90;;;;;;4932741;29;20209;-68
2023/01/09 05:26:36;;;;;;;0.20;0.20;;;7.20;99.90;;;;;;4915970;29;20337;-70
2023/01/09 05:29:03;;;;;;;0.55;0.55;;;7.20;99.90;;;;;;4928452;29;20220;-68
2023/01/09 05:31:30;;;;;;;0.20;0.20;;;7.20;99.90;;;;;;4912063;29;20215;-71
2023/01/09 05:33:58;;;;;;;0.30;0.30;;;7.20;99.90;;;;;;4913371;29;20315;-69
2023/01/09 05:36:27;;;;;;;0.20;0.20;;;7.20;99.90;;;;;;4920572;29;20228;-69
2023/01/09 05:38:56;;;;;;;0.20;0.20;;;7.10;99.90;;;;;;4915249;29;20240;-69
2023/01/09 05:41:23;;;;;;;2.92;0.88;;;7.10;99.90;;;;;;4911510;29;20700;-68
2023/01/09 05:43:50;;;;;;;0.40;0.40;;;7.10;99.90;;;;;;4920688;29;20209;-69
2023/01/09 05:46:16;;;;;;;25.08;0.77;;;7.10;99.90;;;;;;4913573;29;20687;-69
2023/01/09 05:48:43;;;;;;;0.60;0.60;;;7.10;99.90;;;;;;4919277;29;20228;-68
2023/01/09 05:51:10;;;;;;;0.20;0.20;;;7.10;99.90;;;;;;4911951;29;20234;-69
2023/01/09 05:53:38;;;;;;;0.25;0.25;;;7.10;99.90;;;;;;4917167;29;20204;-69
2023/01/09 05:56:06;;;;;;;0.47;0.47;;;7.10;99.90;;;;;;4920374;29;20204;-69
2023/01/09 05:58:32;;;;;;;0.65;0.65;;;7.10;99.90;;;;;;4912918;29;20239;-69
2023/01/09 06:00:59;;;;;;;0.70;0.70;;;7.10;99.90;;;;;;4918449;29;20215;-69
2023/01/09 06:03:26;;;;;;;1.60;1.50;;;7.10;99.90;;;;;;4923886;29;20217;-69
2023/01/09 06:05:53;;;;;;;1.00;1.00;;;7.10;99.90;;;;;;4919801;29;20209;-69
2023/01/09 06:08:19;;;;;;;0.70;0.70;;;7.10;99.90;;;;;;4921778;29;20282;-68
2023/01/09 06:10:47;;;;;;;0.65;0.65;;;7.10;99.90;;;;;;4911492;29;20228;-69
2023/01/09 06:13:14;;;;;;;0.20;0.20;;;7.10;99.90;;;;;;4924301;29;20219;-69
2023/01/09 06:15:41;;;;;;;0.43;0.43;;;7.20;99.90;;;;;;4922798;29;20212;-69
2023/01/09 06:18:08;;;;;;;0.85;0.82;;;7.10;99.90;;;;;;4924394;29;20250;-68
2023/01/09 06:20:35;;;;;;;0.63;0.63;;;7.20;99.90;;;;;;4913383;29;20211;-69
2023/01/09 06:23:02;;;;;;;0.52;0.52;;;7.20;99.90;;;;;;4918009;29;20205;-69
2023/01/09 06:25:29;;;;;;;0.47;0.47;;;7.20;99.90;;;;;;4931699;29;20215;-69
2023/01/09 06:27:57;;;;;;;1.50;1.40;;;7.20;99.90;;;;;;4924984;29;20208;-69
2023/01/09 06:30:23;;;;;;;0.40;0.40;;;7.20;99.90;;;;;;4914054;29;20231;-69
2023/01/09 06:32:51;;;;;;;0.35;0.35;;;7.20;99.90;;;;;;4923543;29;20226;-68
2023/01/09 06:35:19;;;;;;;0.43;0.43;;;7.20;99.90;;;;;;4918379;29;20217;-69
2023/01/09 06:37:47;;;;;;;0.68;0.30;;;7.20;99.90;;;;;;4925697;29;20232;-69
2023/01/09 06:40:14;;;;;;;0.75;0.75;;;7.20;99.90;;;;;;4917549;29;20268;-68
2023/01/09 06:42:43;;;;;;;0.55;0.55;;;7.20;99.90;;;;;;4924046;29;20268;-68
2023/01/09 06:45:12;;;;;;;0.40;0.40;;;7.20;99.90;;;;;;4925848;29;20259;-69
2023/01/09 06:47:39;;;;;;;10.32;8.57;;;7.20;99.90;;;;;;4920228;29;20579;-68
2023/01/09 06:50:08;;;;;;;30.73;16.52;;;7.20;99.90;;;;;;4918296;29;20231;-68
2023/01/09 06:52:34;;;;;;;42.95;26.00;;;7.20;99.90;;;;;;4918507;29;20209;-68
2023/01/09 06:55:01;;;;;;;24.25;13.13;;;7.20;99.90;;;;;;4918265;29;20209;-69
2023/01/09 06:57:28;;;;;;;24.33;14.18;;;7.20;99.90;;;;;;4918365;29;20224;-69
2023/01/09 06:59:55;;;;;;;9.52;6.10;;;7.20;99.90;;;;;;4914059;29;20259;-67
2023/01/09 07:02:23;;;;;;;29.88;14.18;;;7.20;99.90;;;;;;4915327;29;20209;-69
2023/01/09 07:04:50;;;;;;;7.70;6.35;;;7.20;99.90;;;;;;4920618;29;20209;-69
2023/01/09 07:07:18;;;;;;;9.45;7.07;;;7.20;99.90;;;;;;4925935;29;20621;-68
2023/01/09 07:09:45;;;;;;;5.72;4.13;;;7.20;99.90;;;;;;4914047;29;20233;-69
2023/01/09 07:12:13;;;;;;;3.00;2.88;;;7.20;99.90;;;;;;4922762;29;20207;-68
2023/01/09 07:14:40;;;;;;;1.83;1.73;;;7.20;99.90;;;;;;4918636;29;20236;-68
2023/01/09 07:17:07;;;;;;;2.40;2.25;;;7.20;99.90;;;;;;4918930;29;20258;-68
2023/01/09 07:19:35;;;;;;;4.40;2.45;;;7.20;99.90;;;;;;4917681;29;20252;-68
2023/01/09 07:22:01;;;;;;;3.95;3.65;;;7.20;99.90;;;;;;4918829;29;20669;-67
2023/01/09 07:24:28;;;;;;;4.07;3.80;;;7.20;99.90;;;;;;4917300;29;20212;-68
2023/01/09 07:26:55;;;;;;;2.72;1.45;;;7.20;99.90;;;;;;4919633;29;20204;-68
2023/01/09 07:29:22;;;;;;;3.58;3.47;;;7.20;99.90;;;;;;4915536;29;20235;-67
2023/01/09 07:31:48;;;;;;;2.60;2.50;;;7.20;99.90;;;;;;4921721;29;20639;-68
2023/01/09 07:34:15;;;;;;;2.95;1.83;;;7.20;99.90;;;;;;4913251;29;20213;-69
2023/01/09 07:36:45;;;;;;;1.95;1.88;;;7.20;99.90;;;;;;4914167;29;20232;-68
2023/01/09 07:39:12;;;;;;;0.65;0.65;;;7.20;99.90;;;;;;4923117;29;20280;-68
2023/01/09 07:41:38;;;;;;;2.15;2.10;;;7.20;99.90;;;;;;4920196;29;20216;-67
2023/01/09 07:44:06;;;;;;;1.40;1.40;;;7.10;99.90;;;;;;4919945;29;20221;-68
2023/01/09 07:46:33;;;;;;;0.73;0.73;;;7.10;99.90;;;;;;4920422;29;20232;-68
2023/01/09 07:48:59;;;;;;;0.60;0.60;;;7.10;99.90;;;;;;4917221;29;20600;-68
2023/01/09 07:51:26;;;;;;;0.68;0.68;;;7.10;99.90;;;;;;4926451;29;20219;-68
2023/01/09 07:53:54;;;;;;;3.40;0.77;;;7.10;99.90;;;;;;4917024;29;20226;-68
2023/01/09 07:56:21;;;;;;;1.02;1.00;;;7.10;99.90;;;;;;4925223;29;20280;-68
2023/01/09 07:58:48;;;;;;;3.10;2.53;;;7.10;99.90;;;;;;4921946;29;20320;-69
2023/01/09 08:01:15;;;;;;;2.80;1.15;;;7.10;99.90;;;;;;4917678;29;20209;-68
2023/01/09 08:03:42;;;;;;;1.27;0.85;;;7.00;99.90;;;;;;4921592;29;20600;-68
2023/01/09 08:06:09;;;;;;;1.38;1.20;;;7.00;99.90;;;;;;4909046;29;20578;-68
2023/01/09 08:08:35;;;;;;;1.38;1.27;;;7.00;99.90;;;;;;4912306;29;20224;-69
2023/01/09 08:11:04;;;;;;;0.65;0.65;;;7.00;99.90;;;;;;4914436;29;20217;-69
2023/01/09 08:13:30;;;;;;;1.08;1.08;;;7.00;99.90;;;;;;4911665;29;20328;-70
2023/01/09 08:15:57;;;;;;;1.38;1.27;;;7.00;99.90;;;;;;4915900;29;20593;-69
2023/01/09 08:18:24;;;;;;;0.88;0.88;;;6.90;99.90;;;;;;4915522;29;20236;-70
2023/01/09 08:20:50;;;;;;;0.65;0.65;;;6.90;99.90;;;;;;4916010;29;20585;-69
2023/01/09 08:23:17;;;;;;;0.98;0.98;;;6.90;99.90;;;;;;4908366;29;20211;-69
2023/01/09 08:25:44;;;;;;;0.95;0.95;;;6.90;99.90;;;;;;4914922;29;20216;-70
2023/01/09 08:28:12;;;;;;;0.90;0.90;;;7.00;99.90;;;;;;4909443;29;20224;-70
2023/01/09 08:30:39;;;;;;;1.98;1.85;;;6.90;99.90;;;;;;4917326;29;20563;-70
2023/01/09 08:33:05;;;;;;;1.98;1.88;;;6.90;99.90;;;;;;4907967;29;20213;-69
2023/01/09 08:35:32;;;;;;;0.38;0.38;;;6.90;99.90;;;;;;4917305;29;20212;-69
2023/01/09 08:37:59;;;;;;;1.25;0.85;;;6.90;99.90;;;;;;4911957;29;20245;-70
2023/01/09 08:40:25;;;;;;;0.75;0.57;;;6.90;99.90;;;;;;4924359;29;20226;-70
2023/01/09 08:48:34;;;;;;;2.45;1.75;;;6.80;99.90;;;;;;4872829;29;20338;-68
2023/01/09 08:51:01;;;;;;;1.30;1.20;;;6.80;99.90;;;;;;4904865;29;20216;-69
2023/01/09 08:53:28;;;;;;;2.95;2.75;;;6.80;99.90;;;;;;4913801;29;20255;-69
2023/01/09 08:55:55;;;;;;;2.38;2.33;;;6.80;99.90;;;;;;4914466;29;20219;-68
2023/01/09 08:58:21;;;;;;;2.08;1.95;;;6.80;99.90;;;;;;4921776;29;20236;-69
2023/01/09 09:00:49;;;;;;;2.88;2.58;;;6.80;99.90;;;;;;4919325;29;20573;-67
2023/01/09 09:03:17;;;;;;;2.75;1.65;;;6.80;99.90;;;;;;4922498;29;20215;-68
2023/01/09 09:05:43;;;;;;;4.05;3.50;;;6.80;99.90;;;;;;4925246;29;20602;-70
2023/01/09 09:08:10;;;;;;;8.35;5.60;;;6.90;99.90;;;;;;4913801;29;20737;-69
2023/01/09 09:10:37;;;;;;;23.13;5.35;;;6.90;99.90;;;;;;4916097;29;20207;-69
2023/01/09 09:13:05;;;;;;;3.90;2.92;;;6.90;99.90;;;;;;4912423;29;20747;-70
2023/01/09 09:15:33;;;;;;;2.88;2.78;;;6.90;99.90;;;;;;4912709;29;20220;-70
2023/01/09 09:18:02;;;;;;;2.63;1.67;;;6.90;99.90;;;;;;4912336;29;20595;-70
2023/01/09 09:20:31;;;;;;;1.20;1.20;;;6.90;99.90;;;;;;4912131;29;20212;-69
2023/01/09 09:22:58;;;;;;;3.92;2.42;;;6.90;99.90;;;;;;4920205;29;20226;-70
2023/01/09 09:25:25;;;;;;;1.40;1.25;;;6.80;99.90;;;;;;4914082;29;20227;-70
2023/01/09 09:27:54;;;;;;;7.55;2.42;;;6.80;99.90;;;;;;4908655;29;20201;-68
2023/01/09 09:30:22;;;;;;;2.78;2.53;;;6.80;99.90;;;;;;4913699;29;20220;-68
2023/01/09 09:32:49;;;;;;;2.03;1.83;;;6.80;99.90;;;;;;4913212;29;20212;-69
2023/01/09 09:35:17;;;;;;;2.20;1.33;;;6.80;99.90;;;;;;4913493;29;20631;-69
2023/01/09 09:37:53;;;;;;;2.47;1.90;;;6.80;99.90;;;;;;4910493;29;20228;-68
2023/01/09 09:40:26;;;;;;;0.82;0.82;;;6.90;99.90;;;;;;4921790;29;20223;-69
2023/01/09 09:46:02;;;;;;;11.68;2.65;;;7.00;99.90;;;;;;4917369;29;20219;-69
2023/01/09 09:48:35;;;;;;;1.90;1.40;;;7.10;99.90;;;;;;4926503;29;20231;-69
2023/01/09 09:51:33;;;;;;;3.75;1.35;;;7.10;99.90;;;;;;4901342;29;20297;-68
2023/01/09 09:54:04;;;;;;;7.25;2.40;;;7.10;99.90;;;;;;4912172;29;20222;-69
2023/01/09 09:56:36;;;;;;;5.03;2.50;;;7.10;99.90;;;;;;4915669;29;20306;-68
2023/01/09 09:59:05;;;;;;;6.65;3.00;;;7.10;99.90;;;;;;4910921;29;20247;-70
2023/01/09 10:01:39;;;;;;;11.30;4.57;;;7.20;99.90;;;;;;4921376;29;20235;-68
2023/01/09 10:04:11;;;;;;;2.42;2.03;;;7.20;99.90;;;;;;4914902;29;20212;-70
2023/01/09 10:06:43;;;;;;;3.08;2.88;;;7.20;99.90;;;;;;4915024;29;20679;-68
2023/01/09 10:09:16;;;;;;;4.50;4.20;;;7.20;99.90;;;;;;4925546;29;20239;-68
2023/01/09 10:11:49;;;;;;;4.05;2.00;;;7.20;99.90;;;;;;4909928;29;20213;-69
2023/01/09 10:14:16;;;;;;;10.32;6.05;;;7.30;99.90;;;;;;4921081;29;20216;-68
2023/01/09 10:16:57;;;;;;;9.27;4.00;;;7.30;99.90;;;;;;4922821;29;20217;-68
2023/01/09 10:19:37;;;;;;;1.70;1.52;;;7.30;99.90;;;;;;4921915;29;20258;-68
2023/01/09 10:22:16;;;;;;;1.98;1.85;;;7.30;99.90;;;;;;4923830;29;20208;-69
2023/01/09 10:25:05;;;;;;;3.03;2.83;;;7.30;99.90;;;;;;4918730;29;20223;-68
2023/01/09 10:27:44;;;;;;;5.05;3.20;;;7.40;99.90;;;;;;4926833;29;20331;-69
2023/01/09 10:30:27;;;;;;;2.65;2.53;;;7.40;99.90;;;;;;4923032;29;20255;-69
2023/01/09 10:33:06;;;;;;;19.77;13.63;;;7.50;99.90;;;;;;4925444;29;20211;-69
2023/01/09 10:36:08;;;;;;;11.25;6.47;;;7.50;99.90;;;;;;4924352;29;20212;-69
2023/01/09 10:38:41;;;;;;;2.90;2.70;;;7.40;99.90;;;;;;4883578;29;20233;-69
2023/01/09 10:41:12;;;;;;;1.98;1.70;;;7.40;99.90;;;;;;4908401;29;20312;-70
2023/01/09 10:43:44;;;;;;;3.17;2.65;;;7.30;99.90;;;;;;4904421;29;20218;-70
2023/01/09 10:46:18;;;;;;;8.52;4.43;;;7.30;99.90;;;;;;4914318;29;20244;-68
2023/01/09 10:48:50;;;;;;;2.65;2.45;;;7.30;99.90;;;;;;4921529;29;20239;-68
2023/01/09 10:51:20;;;;;;;3.85;2.72;;;7.30;99.90;;;;;;4920822;29;20658;-68
2023/01/09 10:53:51;;;;;;;5.25;3.42;;;7.30;99.90;;;;;;4922044;29;20307;-69
2023/01/09 10:56:23;;;;;;;3.90;3.17;;;7.30;99.90;;;;;;4921681;29;20215;-69
2023/01/09 10:58:50;;;;;;;3.10;2.72;;;7.30;99.90;;;;;;4918132;29;20577;-68
2023/01/09 11:01:19;;;;;;;4.07;3.45;;;7.30;99.90;;;;;;4914015;29;20637;-70
2023/01/09 11:03:46;;;;;;;3.20;2.47;;;7.30;99.90;;;;;;4913852;29;20214;-69
2023/01/09 11:06:21;;;;;;;1.95;1.80;;;7.40;99.90;;;;;;4913418;29;20217;-70
2023/01/09 11:08:51;;;;;;;3.42;3.22;;;7.40;99.90;;;;;;4912912;29;20364;-69
2023/01/09 11:11:32;;;;;;;1.35;1.35;;;7.40;99.90;;;;;;4909835;29;20688;-69
2023/01/09 11:14:13;;;;;;;3.38;3.08;;;7.40;99.90;;;;;;4911541;29;20889;-69
2023/01/09 11:16:50;;;;;;;3.00;2.90;;;7.50;99.90;;;;;;4921455;29;20215;-68
2023/01/09 11:19:17;;;;;;;2.45;2.35;;;7.50;99.90;;;;;;4916064;29;20230;-69
2023/01/09 11:21:44;;;;;;;1.27;1.27;;;7.60;99.90;;;;;;4941676;23;20626;-63
2023/01/09 11:24:30;;;;;;;4.32;2.08;;;7.70;99.90;;;;;;4927509;29;20213;-63
2023/01/09 11:27:23;;;;;;;3.83;2.03;;;7.70;99.90;;;;;;4916167;29;20228;-63
2023/01/09 11:30:33;;;;;;;4.68;2.92;;;7.90;99.90;;;;;;4914126;29;20204;-63
2023/01/09 11:33:00;;;;;;;2.47;1.77;;;7.90;99.90;;;;;;4882368;29;20255;-63
2023/01/09 11:35:30;;;;;;;4.85;3.15;;;8.00;99.90;;;;;;4922503;29;20220;-63
2023/01/09 11:38:04;;;;;;;4.55;1.65;;;8.00;99.90;;;;;;4917671;29;20235;-63
2023/01/09 11:40:38;;;;;;;8.48;3.47;;;8.00;99.90;;;;;;4930651;29;20220;-63
2023/01/09 11:43:14;;;;;;;7.15;2.40;;;8.10;99.90;;;;;;4915616;29;20239;-63
2023/01/09 11:45:46;;;;;;;5.97;3.05;;;8.20;99.90;;;;;;4916209;29;20207;-63
2023/01/09 11:48:18;;;;;;;4.15;2.10;;;8.20;99.90;;;;;;4922262;29;20213;-62
2023/01/09 11:50:54;;;;;;;10.02;4.13;;;8.30;99.90;;;;;;4923774;29;20207;-63
2023/01/09 11:53:22;;;;;;;10.00;3.58;;;8.30;99.90;;;;;;4925690;29;20225;-63
2023/01/09 11:55:57;;;;;;;12.02;8.27;;;8.40;99.90;;;;;;4914164;29;20763;-63
2023/01/09 11:58:25;;;;;;;6.05;3.63;;;8.40;99.90;;;;;;4918778;29;20315;-63
2023/01/09 12:01:00;;;;;;;3.05;1.83;;;8.30;99.90;;;;;;4920715;29;20208;-63
2023/01/09 12:03:49;;;;;;;2.25;1.90;;;8.20;99.90;;;;;;4929725;29;20218;-63
2023/01/09 12:06:24;;;;;;;5.10;4.18;;;8.20;99.90;;;;;;4915186;29;20587;-63
2023/01/09 12:08:56;;;;;;;6.90;3.17;;;8.10;99.90;;;;;;4924832;29;20209;-62
2023/01/09 12:11:30;;;;;;;25.95;11.80;;;8.00;99.90;;;;;;4926338;29;20275;-62
2023/01/09 12:14:17;;;;;;;2.63;2.53;;;8.00;99.90;;;;;;4911500;29;20215;-62
2023/01/09 12:16:54;;;;;;;1.13;1.02;;;8.00;99.90;;;;;;4922526;29;20207;-64
2023/01/09 12:19:43;;;;;;;1.27;1.23;;;8.00;99.90;;;;;;4911854;29;20595;-62
2023/01/09 12:22:18;;;;;;;1.27;1.27;;;8.00;99.90;;;;;;4922714;29;20240;-62
2023/01/09 12:25:00;;;;;;;5.60;4.90;;;8.00;99.90;;;;;;4912814;29;20224;-62
2023/01/09 12:27:42;;;;;;;5.60;4.32;;;8.00;99.90;;;;;;4929543;29;20213;-62
2023/01/09 12:30:26;;;;;;;2.42;2.33;;;8.10;99.90;;;;;;4923813;29;20562;-63
2023/01/09 12:33:05;;;;;;;11.35;8.95;;;8.10;99.90;;;;;;4910184;29;20312;-62
2023/01/09 12:35:40;;;;;;;10.05;7.38;;;8.10;99.90;;;;;;4932124;29;20275;-62
2023/01/09 12:38:22;;;;;;;1.92;1.48;;;8.20;99.90;;;;;;4916698;29;20212;-62
2023/01/09 12:41:21;;;;;;;6.30;4.68;;;8.30;99.90;;;;;;4927428;29;20208;-62
2023/01/09 12:44:04;;;;;;;5.20;4.35;;;8.30;99.90;;;;;;4917154;29;20212;-62
2023/01/09 12:46:40;;;;;;;4.57;4.28;;;8.30;99.90;;;;;;4927243;29;20221;-62
2023/01/09 12:49:28;;;;;;;11.25;5.18;;;8.30;99.90;;;;;;4917920;29;20205;-62
2023/01/09 12:52:03;;;;;;;6.03;4.60;;;8.40;99.90;;;;;;4911426;29;20232;-63
2023/01/09 12:54:34;;;;;;;3.33;1.58;;;8.40;99.90;;;;;;4922907;29;20689;-64
2023/01/09 12:57:05;;;;;;;6.15;4.22;;;8.40;99.90;;;;;;4915097;29;20213;-64
2023/01/09 12:59:38;;;;;;;6.55;6.05;;;8.30;99.90;;;;;;4918468;29;20224;-63
2023/01/09 13:02:13;;;;;;;6.68;4.20;;;8.40;99.90;;;;;;4918204;29;20318;-63
2023/01/09 13:04:45;;;;;;;3.97;3.78;;;8.40;99.90;;;;;;4916147;29;20546;-64
2023/01/09 13:07:17;;;;;;;3.03;2.75;;;8.50;99.90;;;;;;4925008;29;20232;-63
2023/01/09 13:09:49;;;;;;;3.50;3.30;;;8.60;99.90;;;;;;4917311;29;20224;-63
2023/01/09 13:12:20;;;;;;;17.55;10.65;;;8.70;99.90;;;;;;4909810;29;20577;-64
2023/01/09 13:14:53;;;;;;;8.02;5.15;;;8.70;99.90;;;;;;4907057;29;20275;-63
2023/01/09 13:17:25;;;;;;;8.57;5.38;;;8.70;99.90;;;;;;4915579;29;20218;-63
2023/01/09 13:19:53;;;;;;;7.68;4.57;;;8.70;99.90;;;;;;4906728;29;20735;-63
2023/01/09 13:22:21;;;;;;;15.65;7.80;;;8.70;99.90;;;;;;4924963;29;20331;-63
2023/01/09 13:25:16;;;;;;;12.57;5.38;;;8.60;99.90;;;;;;4931132;29;20209;-63
2023/01/09 13:27:50;;;;;;;7.70;5.25;;;8.70;99.90;;;;;;4924952;29;20218;-63
2023/01/09 13:30:36;;;;;;;2.63;2.42;;;8.70;99.90;;;;;;4915536;29;20678;-63
2023/01/09 13:33:15;;;;;;;9.77;6.82;;;8.70;99.90;;;;;;4909717;29;20588;-63
2023/01/09 13:35:51;;;;;;;12.60;6.03;;;8.60;99.90;;;;;;4921027;29;20211;-63
2023/01/09 13:38:20;;;;;;;4.85;2.85;;;8.60;99.90;;;;;;4925100;29;20223;-63
2023/01/09 13:40:47;;;;;;;7.00;3.88;;;8.50;99.90;;;;;;4920132;29;20234;-63
2023/01/09 13:43:15;;;;;;;6.22;4.63;;;8.50;99.90;;;;;;4914542;29;20727;-63
2023/01/09 13:45:43;;;;;;;4.82;3.55;;;8.40;99.90;;;;;;4915127;29;20208;-64
2023/01/09 13:48:29;;;;;;;6.38;3.70;;;8.40;99.90;;;;;;4923868;29;20220;-63
2023/01/09 13:51:40;;;;;;;10.63;7.18;;;8.40;99.90;;;;;;4923935;29;20612;-63
2023/01/09 13:54:09;;;;;;;2.67;2.58;;;8.40;99.90;;;;;;4859863;29;20210;-63
2023/01/09 13:57:09;;;;;;;3.88;3.67;;;8.30;99.90;;;;;;4906101;29;20220;-63
2023/01/09 13:59:36;;;;;;;14.10;9.02;;;8.30;99.90;;;;;;4906560;29;20296;-63
2023/01/09 14:02:45;;;;;;;11.45;5.82;;;8.30;99.90;;;;;;4922756;29;20236;-63
2023/01/09 14:05:13;;;;;;;10.55;6.38;;;8.20;99.90;;;;;;4915301;29;20741;-63
2023/01/09 14:07:41;;;;;;;2.20;1.63;;;8.20;99.90;;;;;;4920737;29;20215;-63
2023/01/09 14:10:22;;;;;;;10.68;3.35;;;8.20;99.90;;;;;;4926448;29;20205;-63
2023/01/09 14:12:53;;;;;;;11.73;4.03;;;8.10;99.90;;;;;;4916893;29;20318;-63
2023/01/09 14:15:26;;;;;;;5.95;5.35;;;8.10;99.90;;;;;;4928028;29;20213;-64
2023/01/09 14:18:01;;;;;;;12.18;6.55;;;8.10;99.90;;;;;;4926806;29;20539;-63
2023/01/09 14:20:35;;;;;;;6.00;3.88;;;8.00;99.90;;;;;;4921205;29;20227;-63
2023/01/09 14:23:02;;;;;;;4.72;4.35;;;8.00;99.90;;;;;;4916752;29;20259;-64
2023/01/09 14:25:31;;;;;;;6.15;4.88;;;8.00;99.90;;;;;;4935003;29;20303;-63
2023/01/09 14:28:09;;;;;;;9.23;4.88;;;8.00;99.90;;;;;;4926059;29;20208;-63
2023/01/09 14:30:38;;;;;;;5.40;3.30;;;7.90;99.90;;;;;;4914400;29;20284;-63
2023/01/09 14:33:26;;;;;;;6.63;4.05;;;7.80;99.90;;;;;;4918793;29;20232;-65
2023/01/09 14:36:02;;;;;;;4.63;4.03;;;7.70;99.90;;;;;;4925114;29;20632;-65
2023/01/09 14:38:32;;;;;;;2.40;2.30;;;7.70;99.90;;;;;;4912434;29;20213;-64
2023/01/09 14:41:09;;;;;;;3.28;3.05;;;7.70;99.90;;;;;;4917722;29;20217;-65
2023/01/09 14:43:48;;;;;;;2.17;1.65;;;7.70;99.90;;;;;;4918419;29;20207;-65
2023/01/09 14:46:17;;;;;;;1.30;1.30;;;7.70;99.90;;;;;;4921738;29;20215;-66
2023/01/09 14:48:57;;;;;;;7.28;1.77;;;7.70;99.90;;;;;;4916358;29;20210;-66
2023/01/09 14:51:25;;;;;;;1.30;1.23;;;7.70;99.90;;;;;;4924746;29;20235;-64
2023/01/09 14:53:53;;;;;;;3.80;1.77;;;7.70;99.90;;;;;;4915714;29;20220;-64
2023/01/09 14:56:27;;;;;;;1.85;1.75;;;7.70;99.90;;;;;;4921334;29;20213;-65
2023/01/09 14:59:11;;;;;;;1.85;1.75;;;7.70;99.90;;;;;;4921800;29;20243;-66
2023/01/09 15:01:39;;;;;;;1.45;1.45;;;7.70;99.90;;;;;;4913906;29;20229;-65
2023/01/09 15:04:19;;;;;;;1.88;1.60;;;7.70;99.90;;;;;;4919255;29;20214;-66
2023/01/09 15:06:46;;;;;;;1.70;1.60;;;7.60;99.90;;;;;;4918116;29;20217;-65
2023/01/09 15:09:21;;;;;;;5.40;1.67;;;7.60;99.90;;;;;;4925871;29;20363;-65
2023/01/09 15:11:48;;;;;;;1.90;1.80;;;7.60;99.90;;;;;;4927111;29;20228;-65
2023/01/09 15:14:26;;;;;;;2.92;2.38;;;7.60;99.90;;;;;;4922123;29;20216;-66
2023/01/09 15:16:52;;;;;;;1.55;1.55;;;7.60;99.90;;;;;;4919112;29;20224;-66
2023/01/09 15:19:21;;;;;;;1.58;1.55;;;7.60;99.90;;;;;;4923586;29;20705;-66
2023/01/09 15:21:57;;;;;;;1.92;1.83;;;7.60;99.90;;;;;;4921117;29;20733;-65
2023/01/09 15:24:28;;;;;;;1.10;1.10;;;7.50;99.90;;;;;;4921539;29;20692;-66
2023/01/09 15:26:57;;;;;;;3.83;3.20;;;7.50;99.90;;;;;;4920827;29;20565;-65
2023/01/09 15:29:24;;;;;;;3.40;2.00;;;7.50;99.90;;;;;;4913949;29;20566;-66
2023/01/09 15:31:55;;;;;;;16.33;1.92;;;7.50;99.90;;;;;;4917238;29;20251;-66
2023/01/09 15:34:24;;;;;;;2.67;2.15;;;7.50;99.90;;;;;;4923278;29;20239;-66
2023/01/09 15:36:52;;;;;;;4.38;3.65;;;7.60;99.90;;;;;;4917784;29;20217;-67
2023/01/09 15:39:24;;;;;;;1.77;1.67;;;7.60;99.90;;;;;;4919374;29;20236;-66
2023/01/09 15:44:38;;;;;;;1.70;1.70;;;7.50;99.90;;;;;;4920774;29;20209;-66
2023/01/09 15:47:13;;;;;;;6.25;2.20;;;7.50;99.90;;;;;;4925668;29;20669;-66
2023/01/09 15:49:41;;;;;;;2.85;2.65;;;7.50;99.90;;;;;;4917193;29;20220;-66
2023/01/09 15:52:13;;;;;;;2.92;2.78;;;7.50;99.90;;;;;;4923821;29;20236;-66
2023/01/09 15:54:41;;;;;;;1.55;1.42;;;7.40;99.90;;;;;;4921021;29;20312;-66
2023/01/09 15:57:32;;;;;;;2.47;1.00;;;7.40;99.90;;;;;;4922184;29;20212;-66
2023/01/09 16:00:42;;;;;;;1.50;1.50;;;7.40;99.90;;;;;;4916833;29;20307;-66
2023/01/09 16:03:21;;;;;;;1.75;1.65;;;7.40;99.90;;;;;;4893779;29;20228;-66
2023/01/09 16:05:52;;;;;;;2.10;1.77;;;7.40;99.90;;;;;;4919001;29;20217;-66
2023/01/09 16:08:25;;;;;;;1.98;1.88;;;7.50;99.90;;;;;;4916581;29;20216;-65
2023/01/09 16:10:54;;;;;;;1.52;1.52;;;7.50;99.90;;;;;;4932000;29;20688;-66
2023/01/09 16:13:23;;;;;;;1.30;1.30;;;7.40;99.90;;;;;;4915482;29;20244;-66
2023/01/09 16:15:51;;;;;;;3.40;2.78;;;7.40;99.90;;;;;;4917639;29;20287;-65
2023/01/09 16:18:27;;;;;;;3.33;1.73;;;7.40;99.90;;;;;;4923321;29;20216;-65
2023/01/09 16:21:19;;;;;;;3.03;1.50;;;7.40;99.90;;;;;;4928778;29;20232;-66
2023/01/09 16:23:52;;;;;;;2.20;2.10;;;7.40;99.90;;;;;;4920581;29;20584;-65
2023/01/09 16:26:22;;;;;;;1.85;1.75;;;7.40;99.90;;;;;;4915526;29;20209;-67
2023/01/09 16:28:49;;;;;;;4.22;2.83;;;7.40;99.90;;;;;;4927005;29;20615;-67
2023/01/09 16:31:22;;;;;;;2.00;1.90;;;7.40;99.90;;;;;;4921817;29;20292;-67
2023/01/09 16:33:53;;;;;;;2.53;2.20;;;7.40;99.90;;;;;;4925596;29;20208;-66
2023/01/09 16:36:21;;;;;;;4.05;3.75;;;7.40;99.90;;;;;;4916553;29;20212;-66
2023/01/09 16:38:48;;;;;;;1.10;1.10;;;7.40;99.90;;;;;;4933069;29;20203;-66
2023/01/09 16:44:02;;;;;;;1.48;1.48;;;7.40;99.90;;;;;;4913527;29;20216;-66
2023/01/09 16:46:29;;;;;;;2.38;2.22;;;7.40;99.90;;;;;;4916840;29;20592;-67
2023/01/09 16:48:56;;;;;;;1.20;1.20;;;7.30;99.90;;;;;;4930768;29;20227;-66
2023/01/09 16:51:24;;;;;;;2.45;1.75;;;7.40;99.90;;;;;;4931409;29;20225;-66
2023/01/09 16:53:51;;;;;;;1.33;1.33;;;7.40;99.90;;;;;;4916806;29;20212;-66
2023/01/09 16:56:21;;;;;;;2.65;2.45;;;7.40;99.90;;;;;;4921769;29;20324;-66
2023/01/09 16:58:49;;;;;;;0.90;0.90;;;7.40;99.90;;;;;;4925346;29;20269;-67
2023/01/09 17:01:16;;;;;;;2.00;1.90;;;7.40;99.90;;;;;;4928541;29;20258;-65
2023/01/09 17:03:43;;;;;;;1.05;1.05;;;7.40;99.90;;;;;;4918710;29;20609;-65
2023/01/09 17:06:15;;;;;;;0.90;0.90;;;7.40;99.90;;;;;;4919814;29;20232;-65
2023/01/09 17:08:43;;;;;;;3.67;2.72;;;7.40;99.90;;;;;;4913192;29;20524;-64
2023/01/09 17:11:19;;;;;;;1.38;1.15;;;7.40;99.90;;;;;;4923537;29;20211;-66
2023/01/09 17:13:46;;;;;;;2.95;1.58;;;7.40;99.90;;;;;;4916755;29;20211;-66
2023/01/09 17:16:14;;;;;;;0.80;0.80;;;7.40;99.90;;;;;;4920547;29;20236;-65
2023/01/09 17:18:41;;;;;;;1.10;1.00;;;7.30;99.90;;;;;;4923870;29;20219;-66
2023/01/09 17:21:16;;;;;;;1.65;1.60;;;7.30;99.90;;;;;;4921280;29;20236;-66
2023/01/09 17:23:44;;;;;;;2.47;1.27;;;7.30;99.90;;;;;;4917286;29;20692;-67
2023/01/09 17:29:02;;;;;;;4.65;1.48;;;7.30;99.90;;;;;;4921208;29;20255;-66
2023/01/09 17:31:29;;;;;;;1.17;1.17;;;7.30;99.90;;;;;;4925087;29;20240;-67
2023/01/09 17:33:57;;;;;;;2.55;2.45;;;7.30;99.90;;;;;;4920425;29;20285;-67
2023/01/09 17:36:27;;;;;;;3.10;2.60;;;7.30;99.90;;;;;;4922721;29;20671;-66
2023/01/09 17:38:56;;;;;;;2.95;1.95;;;7.30;99.90;;;;;;4915109;29;20221;-66
2023/01/09 17:41:24;;;;;;;3.00;2.90;;;7.30;99.90;;;;;;4923726;29;20723;-67
2023/01/09 17:43:51;;;;;;;1.55;1.55;;;7.30;99.90;;;;;;4920571;29;20208;-66
2023/01/09 17:46:22;;;;;;;3.70;3.47;;;7.30;99.90;;;;;;4922695;29;20204;-66
2023/01/09 17:48:49;;;;;;;1.15;1.15;;;7.30;99.90;;;;;;4908841;29;20579;-67
2023/01/09 17:51:16;;;;;;;2.60;1.30;;;7.30;99.90;;;;;;4927436;29;20299;-67
2023/01/09 17:53:43;;;;;;;2.25;2.08;;;7.30;99.90;;;;;;4927306;29;20208;-67
2023/01/09 17:56:15;;;;;;;0.88;0.88;;;7.30;99.90;;;;;;4936093;29;20211;-67
2023/01/09 17:58:44;;;;;;;3.95;3.63;;;7.30;99.90;;;;;;4920004;29;20208;-67
2023/01/09 18:01:11;;;;;;;2.58;2.42;;;7.30;99.90;;;;;;4920009;29;20231;-67
2023/01/09 18:03:38;;;;;;;2.08;1.90;;;7.30;99.90;;;;;;4909680;29;20219;-68
2023/01/09 18:06:05;;;;;;;1.10;1.10;;;7.30;99.90;;;;;;4909973;29;20643;-64
2023/01/09 18:08:32;;;;;;;14.75;8.40;;;7.30;99.90;;;;;;4921082;29;20228;-64
2023/01/09 18:11:02;;;;;;;6.60;3.28;;;7.30;99.90;;;;;;4925717;29;20228;-66
2023/01/09 18:13:32;;;;;;;6.63;3.42;;;7.30;99.90;;;;;;4914220;29;20216;-66
2023/01/09 18:16:00;;;;;;;4.45;3.42;;;7.30;99.90;;;;;;4916876;29;20257;-64
2023/01/09 18:18:27;;;;;;;4.82;3.42;;;7.30;99.90;;;;;;4919096;29;20628;-65
2023/01/09 18:20:54;;;;;;;2.92;2.67;;;7.30;99.90;;;;;;4926252;29;20228;-66
2023/01/09 18:23:21;;;;;;;2.88;2.58;;;7.30;99.90;;;;;;4923169;29;20258;-66
2023/01/09 18:25:48;;;;;;;2.33;2.17;;;7.30;99.90;;;;;;4924314;29;20204;-67
2023/01/09 18:28:15;;;;;;;3.33;2.85;;;7.30;99.90;;;;;;4924200;29;20676;-66
2023/01/09 18:30:46;;;;;;;7.90;4.18;;;7.30;99.90;;;;;;4921583;29;20201;-65
2023/01/09 18:33:13;;;;;;;3.97;3.25;;;7.30;99.90;;;;;;4915425;29;20739;-65
2023/01/09 18:35:40;;;;;;;6.30;5.70;;;7.30;99.90;;;;;;4927631;29;20204;-65